Time;durP1;ratioP1;P1;durP2;ratioP2;P2;SDS_P1;SDS_P2;PMS_P1;PMS_P2;Temp;Humidity;BMP_temperature;BMP_pressure;BME280_temperature;BME280_humidity;BME280_pressure;Samples;Min_cycle;Max_cycle;Signal;HPM_P1;HPM_P2
2022/11/30 00:00:20;;;;;;;36.47;24.95;;;7.40;99.90;;;;;;7379536;19;20706;-52
2022/11/30 00:02:48;;;;;;;32.90;23.05;;;7.40;99.90;;;;;;7378132;19;20038;-51
2022/11/30 00:05:14;;;;;;;32.35;23.20;;;7.40;99.90;;;;;;7380886;19;20014;-50
2022/11/30 00:07:41;;;;;;;36.22;24.25;;;7.40;99.90;;;;;;7376905;19;20783;-51
2022/11/30 00:10:07;;;;;;;33.83;23.75;;;7.40;99.90;;;;;;7377812;19;20022;-52
2022/11/30 00:12:34;;;;;;;34.67;24.52;;;7.40;99.90;;;;;;7371343;19;20400;-51
2022/11/30 00:15:01;;;;;;;34.17;21.88;;;7.40;99.90;;;;;;7377331;19;20018;-49
2022/11/30 00:17:27;;;;;;;34.40;23.17;;;7.40;99.90;;;;;;7378940;19;20014;-50
2022/11/30 00:19:56;;;;;;;35.13;23.00;;;7.40;99.90;;;;;;7375061;19;20406;-52
2022/11/30 00:22:22;;;;;;;34.47;23.38;;;7.30;99.90;;;;;;7376601;19;20518;-50
2022/11/30 00:24:48;;;;;;;38.95;24.08;;;7.30;99.90;;;;;;7377029;19;20423;-52
2022/11/30 00:27:14;;;;;;;37.75;24.35;;;7.20;99.90;;;;;;7379647;19;20515;-51
2022/11/30 00:29:41;;;;;;;36.60;24.10;;;7.20;99.90;;;;;;7376406;19;20034;-51
2022/11/30 00:32:07;;;;;;;38.22;23.67;;;7.10;99.90;;;;;;7376438;19;20498;-51
2022/11/30 00:34:33;;;;;;;33.33;22.77;;;7.00;99.90;;;;;;7374920;19;20046;-51
2022/11/30 00:36:59;;;;;;;34.00;23.15;;;6.90;99.90;;;;;;7376454;19;20624;-48
2022/11/30 00:39:25;;;;;;;32.78;22.42;;;6.80;99.90;;;;;;7374519;19;20130;-48
2022/11/30 00:41:52;;;;;;;36.53;23.20;;;6.70;99.90;;;;;;7376575;19;20486;-50
2022/11/30 00:44:18;;;;;;;38.47;25.15;;;6.60;99.90;;;;;;7371361;19;20638;-47
2022/11/30 00:46:44;;;;;;;36.17;23.33;;;6.50;99.90;;;;;;7375054;19;20019;-51
2022/11/30 00:49:10;;;;;;;36.92;23.60;;;6.40;99.90;;;;;;7377278;19;20042;-49
2022/11/30 00:51:37;;;;;;;34.63;22.88;;;6.30;99.90;;;;;;7375735;19;20014;-48
2022/11/30 00:54:04;;;;;;;38.08;24.85;;;6.30;99.90;;;;;;7373116;19;20022;-50
2022/11/30 00:56:30;;;;;;;42.08;25.27;;;6.30;99.90;;;;;;7379552;19;20035;-49
2022/11/30 00:58:56;;;;;;;39.75;26.05;;;6.30;99.90;;;;;;7376499;19;20010;-50
2022/11/30 01:01:22;;;;;;;44.63;28.08;;;6.30;99.90;;;;;;7377276;19;20462;-49
2022/11/30 01:03:48;;;;;;;45.42;26.23;;;6.40;99.90;;;;;;7373948;19;20026;-51
2022/11/30 01:06:15;;;;;;;50.05;28.42;;;6.40;99.90;;;;;;7378426;19;20019;-51
2022/11/30 01:08:41;;;;;;;47.88;28.10;;;6.40;99.90;;;;;;7378351;19;20015;-51
2022/11/30 01:11:13;;;;;;;46.97;26.38;;;6.30;99.90;;;;;;7376590;19;20486;-52
2022/11/30 01:13:40;;;;;;;50.17;27.90;;;6.30;99.90;;;;;;7373487;19;20494;-52
2022/11/30 01:16:18;;;;;;;50.85;27.80;;;6.20;99.90;;;;;;7375381;19;20023;-49
2022/11/30 01:18:45;;;;;;;52.40;27.95;;;6.20;99.90;;;;;;7372858;19;20018;-53
2022/11/30 01:21:15;;;;;;;47.75;26.88;;;6.10;99.90;;;;;;7374740;19;20015;-49
2022/11/30 01:23:41;;;;;;;49.70;26.65;;;6.10;99.90;;;;;;7374159;19;20018;-51
2022/11/30 01:26:08;;;;;;;53.13;30.27;;;6.20;99.90;;;;;;7373903;19;20025;-52
2022/11/30 01:28:35;;;;;;;48.80;28.48;;;6.20;99.90;;;;;;7374926;19;20014;-51
2022/11/30 01:31:04;;;;;;;50.90;27.80;;;6.30;99.90;;;;;;7373888;19;20029;-51
2022/11/30 01:33:31;;;;;;;54.22;27.90;;;6.30;99.90;;;;;;7377229;19;20018;-51
2022/11/30 01:36:08;;;;;;;50.92;28.10;;;6.40;99.90;;;;;;7372571;19;20014;-50
2022/11/30 01:38:45;;;;;;;52.08;28.90;;;6.40;99.90;;;;;;7372250;19;20018;-50
2022/11/30 01:41:14;;;;;;;50.88;28.00;;;6.40;99.90;;;;;;7375187;19;20117;-51
2022/11/30 01:43:43;;;;;;;51.67;28.48;;;6.40;99.90;;;;;;7369313;19;20019;-51
2022/11/30 01:46:30;;;;;;;48.55;28.20;;;6.50;99.90;;;;;;7373660;19;20014;-50
2022/11/30 01:48:56;;;;;;;50.22;28.83;;;6.50;99.90;;;;;;7373129;19;20022;-51
2022/11/30 01:51:27;;;;;;;56.15;30.30;;;6.60;99.90;;;;;;7370069;19;20015;-48
2022/11/30 01:53:53;;;;;;;56.28;30.48;;;6.60;99.90;;;;;;7372970;19;20019;-48
2022/11/30 01:56:19;;;;;;;51.25;28.13;;;6.60;99.90;;;;;;7370165;19;20408;-49
2022/11/30 01:58:46;;;;;;;47.03;28.08;;;6.60;99.90;;;;;;7371275;19;20497;-48
2022/11/30 02:01:12;;;;;;;48.63;27.65;;;6.60;99.90;;;;;;7371451;19;20381;-49
2022/11/30 02:03:45;;;;;;;50.97;29.17;;;6.70;99.90;;;;;;7370458;19;20402;-48
2022/11/30 02:06:11;;;;;;;48.35;27.67;;;6.70;99.90;;;;;;7373923;19;20019;-47
2022/11/30 02:08:38;;;;;;;50.45;29.05;;;6.70;99.90;;;;;;7372019;19;20043;-50
2022/11/30 02:11:08;;;;;;;47.47;28.38;;;6.70;99.90;;;;;;7371616;19;20026;-50
2022/11/30 02:13:57;;;;;;;39.63;26.35;;;6.80;99.90;;;;;;7367813;19;20023;-52
2022/11/30 02:16:33;;;;;;;42.75;27.33;;;6.70;99.90;;;;;;7372706;19;20368;-50
2022/11/30 02:19:18;;;;;;;42.70;28.13;;;6.70;99.90;;;;;;7370712;19;20030;-52
2022/11/30 02:21:53;;;;;;;41.67;27.48;;;6.70;99.90;;;;;;7372778;19;20030;-49
2022/11/30 02:24:32;;;;;;;43.78;27.25;;;6.70;99.90;;;;;;7369949;19;20082;-52
2022/11/30 02:27:29;;;;;;;45.65;28.17;;;6.70;99.90;;;;;;7368995;19;20014;-51
2022/11/30 02:30:05;;;;;;;41.05;27.08;;;6.70;99.90;;;;;;7370714;19;20022;-50
2022/11/30 02:32:42;;;;;;;43.33;28.63;;;6.70;99.90;;;;;;7370383;19;20423;-51
2022/11/30 02:35:10;;;;;;;47.72;28.15;;;6.70;99.90;;;;;;7371728;19;20015;-50
2022/11/30 02:37:38;;;;;;;41.33;27.08;;;6.70;99.90;;;;;;7368205;19;20022;-49
2022/11/30 02:40:14;;;;;;;43.55;28.42;;;6.70;99.90;;;;;;7375719;19;20107;-50
2022/11/30 02:42:40;;;;;;;46.35;28.20;;;6.70;99.90;;;;;;7370368;19;20014;-48
2022/11/30 02:45:08;;;;;;;45.05;29.65;;;6.70;99.90;;;;;;7378458;19;20355;-49
2022/11/30 02:47:45;;;;;;;45.60;29.35;;;6.70;99.90;;;;;;7380338;19;20632;-51
2022/11/30 02:50:27;;;;;;;41.85;27.67;;;6.70;99.90;;;;;;7380054;19;20019;-52
2022/11/30 02:52:53;;;;;;;46.42;28.58;;;6.70;99.90;;;;;;7375242;19;20408;-51
2022/11/30 02:55:20;;;;;;;42.00;28.60;;;6.70;99.90;;;;;;7378808;19;20049;-51
2022/11/30 02:57:46;;;;;;;46.10;28.40;;;6.70;99.90;;;;;;7376753;19;20014;-50
2022/11/30 03:00:14;;;;;;;45.05;28.90;;;6.70;99.90;;;;;;7376750;19;20125;-52
2022/11/30 03:02:40;;;;;;;47.20;30.30;;;6.70;99.90;;;;;;7380429;19;20025;-51
2022/11/30 03:05:07;;;;;;;49.58;29.20;;;6.70;99.90;;;;;;7373229;19;20078;-51
2022/11/30 03:07:34;;;;;;;44.97;29.67;;;6.70;99.90;;;;;;7379055;19;20021;-49
2022/11/30 03:10:01;;;;;;;45.95;29.42;;;6.70;99.90;;;;;;7367836;19;20015;-50
2022/11/30 03:12:27;;;;;;;43.95;29.10;;;6.70;99.90;;;;;;7376119;19;20019;-51
2022/11/30 03:14:53;;;;;;;51.50;28.85;;;6.70;99.90;;;;;;7374728;19;20023;-50
2022/11/30 03:17:21;;;;;;;44.92;28.27;;;6.70;99.90;;;;;;7380672;19;20381;-50
2022/11/30 03:19:47;;;;;;;47.28;30.48;;;6.70;99.90;;;;;;7375717;19;20568;-50
2022/11/30 03:22:13;;;;;;;46.42;28.98;;;6.80;99.90;;;;;;7378585;19;20014;-53
2022/11/30 03:24:39;;;;;;;46.30;30.35;;;6.80;99.90;;;;;;7378266;19;20272;-52
2022/11/30 03:27:05;;;;;;;44.97;28.35;;;6.80;99.90;;;;;;7377852;19;20742;-51
2022/11/30 03:29:31;;;;;;;48.10;31.23;;;6.80;99.90;;;;;;7376461;19;20060;-51
2022/11/30 03:31:58;;;;;;;47.72;31.05;;;6.80;99.90;;;;;;7378029;19;20028;-50
2022/11/30 03:34:26;;;;;;;49.80;29.40;;;6.80;99.90;;;;;;7377810;19;20098;-51
2022/11/30 03:36:52;;;;;;;46.25;28.73;;;6.80;99.90;;;;;;7375751;19;20019;-51
2022/11/30 03:39:19;;;;;;;49.42;29.98;;;6.80;99.90;;;;;;7378368;19;20023;-50
2022/11/30 03:41:45;;;;;;;45.78;27.92;;;6.80;99.90;;;;;;7380016;19;20018;-47
2022/11/30 03:44:11;;;;;;;47.53;28.88;;;6.80;99.90;;;;;;7377358;19;20470;-46
2022/11/30 03:46:37;;;;;;;45.47;29.65;;;6.80;99.90;;;;;;7376220;19;20507;-50
2022/11/30 03:49:04;;;;;;;47.10;29.90;;;6.80;99.90;;;;;;7376912;19;20014;-48
2022/11/30 03:51:30;;;;;;;47.38;29.10;;;6.80;99.90;;;;;;7374736;19;20100;-51
2022/11/30 03:53:57;;;;;;;47.97;29.83;;;6.80;99.90;;;;;;7375412;19;20014;-49
2022/11/30 03:56:23;;;;;;;50.72;30.77;;;6.80;99.90;;;;;;7376820;19;20489;-50
2022/11/30 03:58:50;;;;;;;50.65;30.08;;;6.80;99.90;;;;;;7375285;19;20018;-45
2022/11/30 04:01:22;;;;;;;47.45;30.45;;;6.80;99.90;;;;;;7377989;19;20029;-49
2022/11/30 04:03:51;;;;;;;47.28;28.30;;;6.80;99.90;;;;;;7378702;19;20015;-49
2022/11/30 04:06:19;;;;;;;52.20;30.42;;;6.80;99.90;;;;;;7378527;19;20707;-49
2022/11/30 04:08:45;;;;;;;49.33;30.05;;;6.80;99.90;;;;;;7377623;19;20018;-46
2022/11/30 04:11:12;;;;;;;54.08;31.20;;;6.80;99.90;;;;;;7376327;19;20038;-49
2022/11/30 04:13:39;;;;;;;54.03;29.60;;;6.80;99.90;;;;;;7377100;19;20359;-50
2022/11/30 04:16:06;;;;;;;48.75;30.88;;;6.80;99.90;;;;;;7375402;19;20026;-50
2022/11/30 04:18:35;;;;;;;44.08;27.77;;;6.80;99.90;;;;;;7374665;19;20026;-51
2022/11/30 04:21:02;;;;;;;46.63;28.20;;;6.80;99.90;;;;;;7375869;19;20015;-46
2022/11/30 04:23:33;;;;;;;44.42;27.83;;;6.90;99.90;;;;;;7377456;19;20929;-49
2022/11/30 04:26:05;;;;;;;49.57;29.80;;;6.90;99.90;;;;;;7375813;19;20034;-46
2022/11/30 04:28:32;;;;;;;47.63;28.33;;;6.80;99.90;;;;;;7374298;19;20267;-51
2022/11/30 04:30:59;;;;;;;45.78;26.50;;;6.90;99.90;;;;;;7376225;19;20043;-51
2022/11/30 04:33:26;;;;;;;48.05;28.80;;;6.90;99.90;;;;;;7377302;19;20022;-47
2022/11/30 04:35:58;;;;;;;46.25;28.55;;;6.90;99.90;;;;;;7375833;19;20029;-52
2022/11/30 04:38:25;;;;;;;48.67;29.30;;;6.90;99.90;;;;;;7380096;19;20018;-50
2022/11/30 04:40:52;;;;;;;44.08;27.92;;;6.80;99.90;;;;;;7376303;19;20039;-51
2022/11/30 04:43:20;;;;;;;48.28;29.63;;;6.90;99.90;;;;;;7372781;19;20589;-48
2022/11/30 04:45:46;;;;;;;47.67;28.42;;;6.90;99.90;;;;;;7375734;19;20010;-49
2022/11/30 04:48:14;;;;;;;45.15;27.95;;;6.90;99.90;;;;;;7373713;19;20019;-48
2022/11/30 04:50:43;;;;;;;45.58;27.70;;;6.90;99.90;;;;;;7373415;19;20042;-46
2022/11/30 04:53:10;;;;;;;46.78;28.33;;;6.90;99.90;;;;;;7373548;19;20552;-47
2022/11/30 04:55:36;;;;;;;46.15;28.08;;;6.90;99.90;;;;;;7376533;19;20490;-50
2022/11/30 04:58:04;;;;;;;48.10;28.63;;;6.90;99.90;;;;;;7375380;19;20030;-46
2022/11/30 05:00:30;;;;;;;49.88;28.35;;;6.90;99.90;;;;;;7371709;19;20021;-50
2022/11/30 05:02:56;;;;;;;41.97;26.95;;;6.90;99.90;;;;;;7373618;19;20038;-47
2022/11/30 05:05:22;;;;;;;45.03;26.50;;;6.80;99.90;;;;;;7373431;19;20032;-48
2022/11/30 05:08:00;;;;;;;42.25;26.38;;;6.90;99.90;;;;;;7369332;19;20082;-46
2022/11/30 05:10:28;;;;;;;42.55;25.63;;;6.90;99.90;;;;;;7375591;19;20039;-45
2022/11/30 05:12:54;;;;;;;45.08;24.70;;;6.90;99.90;;;;;;7370092;19;20432;-45
2022/11/30 05:15:20;;;;;;;44.30;26.00;;;6.90;99.90;;;;;;7376507;19;20023;-50
2022/11/30 05:17:47;;;;;;;42.88;25.90;;;6.90;99.90;;;;;;7371069;19;20018;-49
2022/11/30 05:20:14;;;;;;;39.70;24.00;;;6.90;99.90;;;;;;7375473;19;20018;-51
2022/11/30 05:22:40;;;;;;;45.88;25.55;;;6.80;99.90;;;;;;7368630;19;20478;-50
2022/11/30 05:25:08;;;;;;;43.20;24.95;;;6.90;99.90;;;;;;7374161;19;20423;-49
2022/11/30 05:27:35;;;;;;;43.08;25.23;;;6.90;99.90;;;;;;7366968;19;20010;-49
2022/11/30 05:30:02;;;;;;;46.97;25.55;;;6.90;99.90;;;;;;7365655;19;20060;-50
2022/11/30 05:32:28;;;;;;;45.15;26.13;;;6.90;99.90;;;;;;7361651;19;20571;-47
2022/11/30 05:34:54;;;;;;;44.72;26.60;;;6.90;99.90;;;;;;7365457;19;20053;-50
2022/11/30 05:37:20;;;;;;;46.67;26.63;;;6.90;99.90;;;;;;7365571;19;20018;-50
2022/11/30 05:39:46;;;;;;;47.92;26.35;;;6.90;99.90;;;;;;7361102;19;20018;-51
2022/11/30 05:42:13;;;;;;;47.42;26.30;;;6.90;99.90;;;;;;7369075;19;20490;-50
2022/11/30 05:44:39;;;;;;;51.25;27.55;;;6.90;99.90;;;;;;7362565;19;20031;-51
2022/11/30 05:47:05;;;;;;;51.00;26.75;;;6.80;99.90;;;;;;7365343;19;20525;-51
2022/11/30 05:49:31;;;;;;;47.25;25.63;;;6.90;99.90;;;;;;7355748;19;20467;-48
2022/11/30 05:51:57;;;;;;;52.35;27.65;;;6.80;99.90;;;;;;7357171;19;20522;-49
2022/11/30 05:54:24;;;;;;;52.53;27.42;;;6.80;99.90;;;;;;7356914;19;20025;-48
2022/11/30 05:56:50;;;;;;;52.97;26.85;;;6.80;99.90;;;;;;7360612;19;20025;-50
2022/11/30 05:59:16;;;;;;;51.90;26.95;;;6.90;99.90;;;;;;7359887;19;20370;-48
2022/11/30 06:01:43;;;;;;;50.80;26.65;;;6.80;99.90;;;;;;7359771;19;20090;-50
2022/11/30 06:04:09;;;;;;;48.50;25.70;;;6.80;99.90;;;;;;7362203;19;20501;-52
2022/11/30 06:06:35;;;;;;;55.80;27.58;;;6.80;99.90;;;;;;7361097;19;20471;-50
2022/11/30 06:09:01;;;;;;;51.85;25.95;;;6.80;99.90;;;;;;7361660;19;20019;-51
2022/11/30 06:11:27;;;;;;;57.08;26.38;;;6.80;99.90;;;;;;7362664;19;20021;-51
2022/11/30 06:13:54;;;;;;;43.65;26.15;;;6.80;99.90;;;;;;7360763;19;20018;-51
2022/11/30 06:16:20;;;;;;;55.28;27.38;;;6.80;99.90;;;;;;7364687;19;20078;-50
2022/11/30 06:18:46;;;;;;;53.15;26.15;;;6.80;99.90;;;;;;7368478;19;20039;-51
2022/11/30 06:21:14;;;;;;;56.70;27.08;;;6.80;99.90;;;;;;7367992;19;20010;-50
2022/11/30 06:23:40;;;;;;;50.65;27.25;;;6.80;99.90;;;;;;7369429;19;20545;-50
2022/11/30 06:26:09;;;;;;;55.10;27.75;;;6.80;99.90;;;;;;7367218;19;20806;-51
2022/11/30 06:28:36;;;;;;;58.50;28.02;;;6.80;99.90;;;;;;7370423;19;20950;-51
2022/11/30 06:31:05;;;;;;;60.67;28.90;;;6.70;99.90;;;;;;7365954;19;20576;-48
2022/11/30 06:33:31;;;;;;;60.08;26.60;;;6.80;99.90;;;;;;7369049;19;20042;-52
2022/11/30 06:35:57;;;;;;;54.55;28.20;;;6.70;99.90;;;;;;7372238;19;20018;-52
2022/11/30 06:38:24;;;;;;;55.08;26.73;;;6.70;99.90;;;;;;7373733;19;20022;-51
2022/11/30 06:40:51;;;;;;;52.70;27.25;;;6.70;99.90;;;;;;7369363;19;20014;-48
2022/11/30 06:43:18;;;;;;;59.03;27.30;;;6.70;99.90;;;;;;7374624;19;20050;-52
2022/11/30 06:45:45;;;;;;;58.72;26.90;;;6.70;99.90;;;;;;7371878;19;20356;-52
2022/11/30 06:48:12;;;;;;;52.85;28.52;;;6.70;99.90;;;;;;7368381;19;20356;-48
2022/11/30 06:50:40;;;;;;;55.00;27.83;;;6.70;99.90;;;;;;7370657;19;20027;-50
2022/11/30 06:53:07;;;;;;;54.65;27.55;;;6.70;99.90;;;;;;7366469;19;20018;-49
2022/11/30 06:55:34;;;;;;;52.13;25.83;;;6.70;99.90;;;;;;7371192;19;20014;-51
2022/11/30 06:58:08;;;;;;;58.35;27.13;;;6.70;99.90;;;;;;7367162;19;20015;-52
2022/11/30 07:00:35;;;;;;;54.15;25.85;;;6.60;99.90;;;;;;7369748;19;20038;-51
2022/11/30 07:03:02;;;;;;;48.55;24.38;;;6.60;99.90;;;;;;7368270;19;20489;-52
2022/11/30 07:05:31;;;;;;;53.47;26.05;;;6.60;99.90;;;;;;7368059;19;20074;-50
2022/11/30 07:07:58;;;;;;;45.47;22.55;;;6.60;99.90;;;;;;7368317;19;20038;-51
2022/11/30 07:10:24;;;;;;;40.03;22.17;;;6.60;99.90;;;;;;7367520;19;20034;-49
2022/11/30 07:12:50;;;;;;;38.53;21.83;;;6.60;99.90;;;;;;7365222;19;20022;-49
2022/11/30 07:15:17;;;;;;;36.15;21.45;;;6.70;99.90;;;;;;7367938;19;20022;-51
2022/11/30 07:17:43;;;;;;;43.83;21.85;;;6.60;99.90;;;;;;7371881;19;20381;-51
2022/11/30 07:20:09;;;;;;;40.67;20.98;;;6.60;99.90;;;;;;7371359;19;20031;-50
2022/11/30 07:22:36;;;;;;;37.00;20.58;;;6.60;99.90;;;;;;7361087;19;20010;-52
2022/11/30 07:27:47;;;;;;;35.25;18.95;;;6.60;99.90;;;;;;7364408;19;20264;-50
2022/11/30 07:30:14;;;;;;;34.55;19.55;;;6.60;99.90;;;;;;7364819;19;20028;-49
2022/11/30 07:32:40;;;;;;;35.08;19.25;;;6.70;99.90;;;;;;7361940;19;20607;-52
2022/11/30 07:35:07;;;;;;;33.20;19.00;;;6.60;99.90;;;;;;7364861;19;20019;-49
2022/11/30 07:37:33;;;;;;;34.15;19.92;;;6.60;99.90;;;;;;7369696;19;20018;-50
2022/11/30 07:39:59;;;;;;;30.92;18.60;;;6.60;99.90;;;;;;7363837;19;20019;-50
2022/11/30 07:42:25;;;;;;;35.00;20.33;;;6.60;99.90;;;;;;7362061;19;20749;-49
2022/11/30 07:44:52;;;;;;;32.45;19.50;;;6.60;99.90;;;;;;7366591;19;20027;-51
2022/11/30 07:47:18;;;;;;;34.58;19.58;;;6.60;99.90;;;;;;7363248;19;20449;-49
2022/11/30 07:49:44;;;;;;;33.95;19.50;;;6.60;99.90;;;;;;7370213;19;20525;-50
2022/11/30 07:52:10;;;;;;;32.05;18.77;;;6.60;99.90;;;;;;7361487;19;20066;-53
2022/11/30 07:54:37;;;;;;;31.42;19.85;;;6.60;99.90;;;;;;7368688;19;20481;-51
2022/11/30 07:57:03;;;;;;;30.60;18.50;;;6.60;99.90;;;;;;7366505;19;20346;-52
2022/11/30 07:59:29;;;;;;;35.45;19.58;;;6.60;99.90;;;;;;7367216;19;20021;-52
2022/11/30 08:01:55;;;;;;;29.58;17.92;;;6.60;99.90;;;;;;7364289;19;20022;-49
2022/11/30 08:04:21;;;;;;;29.48;16.83;;;6.60;99.90;;;;;;7369254;19;20589;-52
2022/11/30 08:06:48;;;;;;;27.10;17.58;;;6.60;99.90;;;;;;7368530;19;20014;-52
2022/11/30 08:09:14;;;;;;;25.70;16.92;;;6.60;99.90;;;;;;7370509;19;20107;-51
2022/11/30 08:11:40;;;;;;;28.52;18.05;;;6.50;99.90;;;;;;7362794;19;20493;-47
2022/11/30 08:14:11;;;;;;;26.05;17.70;;;6.60;99.90;;;;;;7365205;19;20511;-49
2022/11/30 08:16:37;;;;;;;27.83;17.23;;;6.60;99.90;;;;;;7362810;19;20576;-51
2022/11/30 08:19:04;;;;;;;25.70;17.02;;;6.60;99.90;;;;;;7362675;19;20365;-51
2022/11/30 08:21:33;;;;;;;27.00;17.38;;;6.60;99.90;;;;;;7365572;19;20023;-52
2022/11/30 08:24:00;;;;;;;29.17;17.77;;;6.60;99.90;;;;;;7366451;19;20017;-53
2022/11/30 08:26:29;;;;;;;23.98;17.33;;;6.60;99.90;;;;;;7368794;19;20010;-48
2022/11/30 08:28:56;;;;;;;25.48;16.60;;;6.60;99.90;;;;;;7368305;19;20885;-52
2022/11/30 08:31:28;;;;;;;23.33;16.55;;;6.60;99.90;;;;;;7362928;19;20018;-51
2022/11/30 08:33:59;;;;;;;23.73;16.08;;;6.70;99.90;;;;;;7366067;19;20116;-51
2022/11/30 08:36:27;;;;;;;25.08;17.27;;;6.70;99.90;;;;;;7362250;19;20017;-50
2022/11/30 08:38:55;;;;;;;24.17;15.52;;;6.70;99.90;;;;;;7366318;19;20046;-52
2022/11/30 08:41:22;;;;;;;24.10;17.45;;;6.70;99.90;;;;;;7363888;19;20023;-52
2022/11/30 08:43:49;;;;;;;22.92;17.02;;;6.70;99.90;;;;;;7364822;19;20015;-51
2022/11/30 08:46:18;;;;;;;22.45;16.45;;;6.70;99.90;;;;;;7367573;19;20032;-50
2022/11/30 08:48:45;;;;;;;22.27;15.82;;;6.70;99.90;;;;;;7365056;19;20454;-51
2022/11/30 08:51:15;;;;;;;21.25;15.88;;;6.70;99.90;;;;;;7363609;19;20030;-50
2022/11/30 08:53:41;;;;;;;24.05;15.77;;;6.70;99.90;;;;;;7361874;19;20018;-52
2022/11/30 08:56:11;;;;;;;20.90;15.35;;;6.70;99.90;;;;;;7359463;19;20026;-51
2022/11/30 08:58:38;;;;;;;20.95;16.02;;;6.70;99.90;;;;;;7363633;19;20489;-51
2022/11/30 09:01:05;;;;;;;21.92;15.73;;;6.70;99.90;;;;;;7366104;19;20010;-51
2022/11/30 09:03:31;;;;;;;22.25;16.63;;;6.70;99.90;;;;;;7363591;19;20014;-52
2022/11/30 09:06:11;;;;;;;21.15;16.40;;;6.70;99.90;;;;;;7363369;19;20049;-48
2022/11/30 09:08:39;;;;;;;23.13;17.45;;;6.70;99.90;;;;;;7361505;19;20023;-52
2022/11/30 09:11:22;;;;;;;23.52;16.70;;;6.80;99.90;;;;;;7360174;19;20360;-52
2022/11/30 09:13:49;;;;;;;20.88;15.70;;;6.80;99.90;;;;;;7363223;19;20450;-51
2022/11/30 09:16:17;;;;;;;22.45;16.48;;;6.70;99.90;;;;;;7365139;19;20022;-52
2022/11/30 09:18:45;;;;;;;24.30;17.27;;;6.70;99.90;;;;;;7364562;19;20473;-52
2022/11/30 09:21:15;;;;;;;22.50;16.27;;;6.80;99.90;;;;;;7361059;19;20011;-47
2022/11/30 09:23:42;;;;;;;22.15;16.92;;;6.70;99.90;;;;;;7360559;19;20034;-51
2022/11/30 09:26:11;;;;;;;20.58;16.58;;;6.70;99.90;;;;;;7362477;19;20474;-52
2022/11/30 09:28:38;;;;;;;25.17;18.38;;;6.70;99.90;;;;;;7362726;19;20592;-50
2022/11/30 09:31:07;;;;;;;23.45;17.45;;;6.70;99.90;;;;;;7362400;19;20341;-50
2022/11/30 09:33:34;;;;;;;24.50;17.77;;;6.70;99.90;;;;;;7359430;19;20029;-50
2022/11/30 09:36:11;;;;;;;22.17;17.38;;;6.70;99.90;;;;;;7361116;19;20011;-51
2022/11/30 09:38:41;;;;;;;23.33;18.48;;;6.70;99.90;;;;;;7362529;19;20022;-50
2022/11/30 09:41:27;;;;;;;25.23;19.02;;;6.70;99.90;;;;;;7358117;19;20441;-51
2022/11/30 09:44:10;;;;;;;25.98;19.00;;;6.70;99.90;;;;;;7358594;19;20015;-50
2022/11/30 09:46:47;;;;;;;21.90;17.67;;;6.70;99.90;;;;;;7363195;19;20014;-52
2022/11/30 09:49:30;;;;;;;22.83;19.30;;;6.70;99.90;;;;;;7362705;19;20050;-48
2022/11/30 09:52:00;;;;;;;22.48;17.63;;;6.70;99.90;;;;;;7355254;19;20026;-50
2022/11/30 09:54:43;;;;;;;21.80;16.77;;;6.80;99.90;;;;;;7360216;19;20030;-52
2022/11/30 09:57:24;;;;;;;21.15;17.30;;;6.80;99.90;;;;;;7362160;19;20029;-50
2022/11/30 09:59:57;;;;;;;20.97;17.03;;;6.90;99.90;;;;;;7360095;19;20018;-51
2022/11/30 10:02:28;;;;;;;21.63;17.63;;;7.00;99.90;;;;;;7361576;19;20037;-52
2022/11/30 10:04:56;;;;;;;22.63;18.10;;;7.00;99.90;;;;;;7359349;19;20669;-52
2022/11/30 10:07:40;;;;;;;21.73;18.02;;;7.00;99.90;;;;;;7363761;19;20348;-52
2022/11/30 10:10:32;;;;;;;22.15;17.58;;;7.00;99.90;;;;;;7364314;19;20019;-52
2022/11/30 10:12:58;;;;;;;;;;;7.00;99.90;;;;;;7361390;19;20082;-51
2022/11/30 10:15:50;;;;;;;20.00;17.30;;;7.00;99.90;;;;;;7361246;19;20797;-51
2022/11/30 10:18:34;;;;;;;21.57;19.00;;;7.00;99.90;;;;;;7363010;19;20612;-52
2022/11/30 10:21:21;;;;;;;26.33;19.35;;;6.90;99.90;;;;;;7363905;19;20081;-51
2022/11/30 10:23:57;;;;;;;25.35;19.77;;;7.00;99.90;;;;;;7360804;19;20041;-51
2022/11/30 10:26:37;;;;;;;27.38;21.05;;;7.00;99.90;;;;;;7358495;19;20018;-50
2022/11/30 10:29:14;;;;;;;21.50;18.90;;;7.00;99.90;;;;;;7353654;19;20019;-52
2022/11/30 10:31:42;;;;;;;24.00;19.60;;;7.10;99.90;;;;;;7362288;19;20042;-50
2022/11/30 10:34:18;;;;;;;23.15;18.38;;;7.10;99.90;;;;;;7360332;19;20014;-52
2022/11/30 10:36:51;;;;;;;24.98;20.23;;;7.10;99.90;;;;;;7361586;19;20604;-52
2022/11/30 10:39:26;;;;;;;26.80;20.73;;;7.20;99.90;;;;;;7362063;19;20528;-51
2022/11/30 10:41:58;;;;;;;23.98;19.55;;;7.20;99.90;;;;;;7362457;19;20049;-48
2022/11/30 10:44:33;;;;;;;23.30;19.10;;;7.30;99.90;;;;;;7359573;19;20019;-51
2022/11/30 10:47:09;;;;;;;20.83;17.50;;;7.40;99.90;;;;;;7361894;19;20094;-51
2022/11/30 10:49:40;;;;;;;21.83;18.20;;;7.30;99.90;;;;;;7363694;19;20015;-52
2022/11/30 10:52:07;;;;;;;20.42;16.95;;;7.40;99.90;;;;;;7359413;19;20010;-51
2022/11/30 10:54:35;;;;;;;19.90;16.20;;;7.40;99.90;;;;;;7358890;19;20006;-52
2022/11/30 10:57:04;;;;;;;17.63;15.15;;;7.40;99.90;;;;;;7355531;19;20051;-49
2022/11/30 10:59:52;;;;;;;16.75;14.88;;;7.30;99.90;;;;;;7363815;19;20576;-50
2022/11/30 11:02:36;;;;;;;18.42;15.50;;;7.30;99.90;;;;;;7361078;19;20563;-47
2022/11/30 11:05:14;;;;;;;18.48;15.18;;;7.20;99.90;;;;;;7362924;19;20078;-50
2022/11/30 11:07:59;;;;;;;21.25;17.15;;;7.20;99.90;;;;;;7364504;19;20203;-47
2022/11/30 11:10:50;;;;;;;20.17;16.17;;;7.20;99.90;;;;;;7364018;19;20057;-51
2022/11/30 11:13:39;;;;;;;19.95;15.43;;;7.20;99.90;;;;;;7364922;19;20339;-50
2022/11/30 11:16:08;;;;;;;20.83;16.17;;;7.20;99.90;;;;;;7367946;19;20595;-51
2022/11/30 11:18:36;;;;;;;23.08;16.80;;;7.20;99.90;;;;;;7367664;19;20046;-48
2022/11/30 11:21:02;;;;;;;22.77;17.25;;;7.30;99.90;;;;;;7364067;19;20097;-51
2022/11/30 11:23:37;;;;;;;21.90;17.80;;;7.30;99.90;;;;;;7365635;19;20028;-51
2022/11/30 11:26:06;;;;;;;22.90;17.05;;;7.30;99.90;;;;;;7369187;19;20038;-50
2022/11/30 11:28:35;;;;;;;23.90;18.80;;;7.30;99.90;;;;;;7366437;19;20374;-51
2022/11/30 11:31:16;;;;;;;26.73;19.30;;;7.20;99.90;;;;;;7363515;19;20026;-48
2022/11/30 11:33:51;;;;;;;25.90;20.13;;;7.20;99.90;;;;;;7368374;19;20348;-49
2022/11/30 11:36:30;;;;;;;26.67;20.58;;;7.20;99.90;;;;;;7370831;19;20595;-51
2022/11/30 11:38:57;;;;;;;27.75;20.85;;;7.20;99.90;;;;;;7369575;19;20121;-49
2022/11/30 11:41:36;;;;;;;26.55;20.80;;;7.20;99.90;;;;;;7367332;19;20026;-48
2022/11/30 11:44:08;;;;;;;29.63;21.75;;;7.20;99.90;;;;;;7367050;19;20042;-48
2022/11/30 11:46:52;;;;;;;;;;;7.20;99.90;;;;;;7366227;19;20314;-46
2022/11/30 11:49:24;;;;;;;28.95;20.75;;;7.20;99.90;;;;;;7365975;19;19934;-50
2022/11/30 11:52:13;;;;;;;33.65;23.60;;;7.20;99.90;;;;;;7361357;19;20078;-51
2022/11/30 11:54:52;;;;;;;27.75;20.77;;;7.20;99.90;;;;;;7367592;19;20060;-51
2022/11/30 11:57:22;;;;;;;28.98;20.73;;;7.20;99.90;;;;;;7367163;19;20050;-48
2022/11/30 12:00:04;;;;;;;32.45;21.65;;;7.20;99.90;;;;;;7369288;19;20033;-51
2022/11/30 12:02:49;;;;;;;32.42;22.35;;;7.20;99.90;;;;;;7363691;19;20592;-46
2022/11/30 12:05:24;;;;;;;34.60;24.92;;;7.20;99.90;;;;;;7368273;19;20014;-50
2022/11/30 12:08:29;;;;;;;32.78;23.02;;;7.30;99.90;;;;;;7369653;19;20010;-51
2022/11/30 12:11:15;;;;;;;30.90;21.55;;;7.30;99.90;;;;;;7365741;19;20512;-50
2022/11/30 12:13:43;;;;;;;32.65;22.33;;;7.40;99.90;;;;;;7364660;19;20018;-48
2022/11/30 12:16:29;;;;;;;31.67;22.58;;;7.40;99.90;;;;;;7368225;19;20448;-48
2022/11/30 12:19:15;;;;;;;29.02;21.85;;;7.40;99.90;;;;;;7368556;19;20021;-50
2022/11/30 12:21:56;;;;;;;29.92;22.15;;;7.40;99.90;;;;;;7366990;19;20018;-51
2022/11/30 12:25:06;;;;;;;29.17;22.20;;;7.40;99.90;;;;;;7368453;19;20110;-50
2022/11/30 12:27:42;;;;;;;29.33;21.95;;;7.40;99.90;;;;;;7368180;19;20022;-51
2022/11/30 12:30:26;;;;;;;31.63;22.17;;;7.40;99.90;;;;;;7370741;19;20013;-50
2022/11/30 12:33:09;;;;;;;31.52;22.75;;;7.40;99.90;;;;;;7367928;19;20018;-50
2022/11/30 12:35:57;;;;;;;31.13;22.48;;;7.40;99.90;;;;;;7364611;19;20018;-51
2022/11/30 12:39:05;;;;;;;31.90;22.67;;;7.40;99.90;;;;;;7366948;19;20026;-49
2022/11/30 12:41:40;;;;;;;33.42;23.67;;;7.40;99.90;;;;;;7367016;19;20020;-48
2022/11/30 12:44:31;;;;;;;32.80;23.60;;;7.30;99.90;;;;;;7366188;19;20458;-51
2022/11/30 12:47:16;;;;;;;32.33;23.38;;;7.40;99.90;;;;;;7366700;19;20022;-47
2022/11/30 12:50:04;;;;;;;32.67;22.23;;;7.40;99.90;;;;;;7369759;19;20018;-51
2022/11/30 12:52:39;;;;;;;31.42;22.27;;;7.40;99.90;;;;;;7364833;19;20014;-50
2022/11/30 12:55:32;;;;;;;36.15;24.88;;;7.40;99.90;;;;;;7368312;19;20032;-50
2022/11/30 12:58:29;;;;;;;32.05;22.63;;;7.40;99.90;;;;;;7365875;19;20553;-51